Portada
METAR-TAF:

METAR-TAF

Aeroports :

Nanning, Xina

latitud: 22-49N, longitud: 108-21E, altitud: 73 m

Observació

L'informe es va fer fa 20 minuts, a les 11:00 UTC
Vent 6 kt del Sud-Est
Temperatura 24°C
Humitat 69%
Pressió 1016 hPa
Visibilitat 10 km o més
sense núvols per sota de 1500 mi sense presència de cumulonimbus.

METAR: ZGNN 261100Z 13003MPS CAVOK 24/18 Q1016 NOSIG

Hora: 19:20 (11:20 UTC)

Pronòstic

L'informe es va fer fa 8 hores i 10 minuts, a les 03:10 UTC
Pronòstic vàlid del 26 a les 06 UTC al 27 a les 06 UTC
Vent 6 kt del Sud/Sud-Est
Visibilitat: 5000 m
Núvols disperses a una alçada de 3300 ft
boirina
Temporalment
l' 26 a les 23 UTC al 27 a les 02 UTC
Visibilitat: 1800 m

TAF: ZGNN 260310Z 2606/2706 16003MPS 5000 BR SCT033 TX26/2607Z TN16/2622Z TEMPO 2623/2702 1800

Observacions i pronòstics meteorològics de més de 4000 aeroports (METAR i TAF).

Les estacions disponibles són els punts grocs i vermells al mapa.

Posi el ratolí al punt desitjat per veure el nom de l'estació.

Feu clic per veure les observacions i els pronòstics meteorològics.

Per canviar el mapa: feu clic els botons verds amb una creu de color negre per apropar; al botó verd amb un guió per allunyar la imatge; o en les fletxes verdes per a mapes adjacents.


METAR-TAF: